createdAt,value
2023-02-05T00:01:21.932Z,20.95
2023-02-05T00:03:49.170Z,19.73
2023-02-05T00:06:15.837Z,20.05
2023-02-05T00:08:42.809Z,21.55
2023-02-05T00:11:09.966Z,20.88
2023-02-05T00:13:37.667Z,21.45
2023-02-05T00:16:11.953Z,19.90
2023-02-05T00:18:38.620Z,20.05
2023-02-05T00:21:06.130Z,22.02
2023-02-05T00:23:33.725Z,21.20
2023-02-05T00:26:00.484Z,20.95
2023-02-05T00:28:27.007Z,20.98
2023-02-05T00:30:53.560Z,20.08
2023-02-05T00:33:21.839Z,20.90
2023-02-05T00:35:49.625Z,21.80
2023-02-05T00:38:16.167Z,20.23
2023-02-05T00:40:43.270Z,21.05
2023-02-05T00:43:10.150Z,21.00
2023-02-05T00:45:36.778Z,19.75
2023-02-05T00:48:06.772Z,19.75
2023-02-05T00:50:34.392Z,19.98
2023-02-05T00:53:00.976Z,18.45
2023-02-05T00:55:27.477Z,18.27
2023-02-05T00:57:54.568Z,18.85
2023-02-05T01:00:21.725Z,18.33
2023-02-05T01:02:48.283Z,18.23
2023-02-05T01:05:14.835Z,17.63
2023-02-05T01:07:41.797Z,19.25
2023-02-05T01:10:08.517Z,17.88
2023-02-05T01:12:35.090Z,20.23
2023-02-05T01:15:02.052Z,21.77
2023-02-05T01:17:28.585Z,20.27
2023-02-05T01:19:55.120Z,20.25
2023-02-05T01:22:21.634Z,18.75
2023-02-05T01:24:49.836Z,21.20
2023-02-05T01:27:16.396Z,19.45
2023-02-05T01:29:42.894Z,21.45
2023-02-05T01:32:09.641Z,20.67
2023-02-05T01:34:36.505Z,21.75
2023-02-05T01:37:03.097Z,21.65
2023-02-05T01:39:29.894Z,20.83
2023-02-05T01:41:56.518Z,22.25
2023-02-05T01:44:24.742Z,22.35
2023-02-05T01:46:53.099Z,22.20
2023-02-05T01:49:52.227Z,24.48
2023-02-05T01:52:18.960Z,21.55
2023-02-05T01:54:48.726Z,22.75
2023-02-05T01:57:19.408Z,24.10
2023-02-05T01:59:46.822Z,24.00
2023-02-05T02:02:13.986Z,23.98
2023-02-05T02:04:43.434Z,24.65
2023-02-05T02:07:13.008Z,23.80
2023-02-05T02:09:44.716Z,25.33
2023-02-05T02:12:13.517Z,24.45
2023-02-05T02:14:42.561Z,24.35
2023-02-05T02:17:10.527Z,24.13
2023-02-05T02:19:41.484Z,24.38
2023-02-05T02:22:19.318Z,23.25
2023-02-05T02:25:15.534Z,24.92
2023-02-05T02:28:00.168Z,21.92
2023-02-05T02:30:35.695Z,23.48
2023-02-05T02:33:09.568Z,23.95
2023-02-05T02:35:42.954Z,24.10
2023-02-05T02:38:27.981Z,22.63
2023-02-05T02:40:56.125Z,24.67
2023-02-05T02:43:30.239Z,24.75
2023-02-05T02:46:22.123Z,23.83
2023-02-05T02:48:51.294Z,22.88
2023-02-05T02:51:19.305Z,23.25
2023-02-05T02:53:52.760Z,24.52
2023-02-05T02:56:20.411Z,24.90
2023-02-05T02:58:50.899Z,24.85
2023-02-05T03:01:20.974Z,24.65
2023-02-05T03:03:53.132Z,23.00
2023-02-05T03:06:20.992Z,23.83
2023-02-05T03:09:00.996Z,25.02
2023-02-05T03:11:27.630Z,25.33
2023-02-05T03:13:55.783Z,25.17
2023-02-05T03:16:26.489Z,24.30
2023-02-05T03:18:54.171Z,24.50
2023-02-05T03:21:34.163Z,26.63
2023-02-05T03:24:00.718Z,24.98
2023-02-05T03:26:31.850Z,24.88
2023-02-05T03:29:15.983Z,24.80
2023-02-05T03:32:24.803Z,25.60
2023-02-05T03:35:18.046Z,25.10
2023-02-05T03:38:11.597Z,25.80
2023-02-05T03:40:59.319Z,26.48
2023-02-05T03:43:30.723Z,27.30
2023-02-05T03:46:04.907Z,30.23
2023-02-05T03:48:39.665Z,29.70
2023-02-05T03:51:17.387Z,32.50
2023-02-05T03:53:56.235Z,31.13
2023-02-05T03:56:34.242Z,33.03
2023-02-05T03:59:02.831Z,31.17
2023-02-05T04:01:29.527Z,33.95
2023-02-05T04:03:56.208Z,33.95
2023-02-05T04:06:23.535Z,37.13
2023-02-05T04:08:52.650Z,35.20
2023-02-05T04:11:19.230Z,35.22
2023-02-05T04:13:46.938Z,36.83
2023-02-05T04:16:14.538Z,42.33
2023-02-05T04:18:41.066Z,40.53
2023-02-05T04:21:07.547Z,40.72
2023-02-05T04:23:37.496Z,41.17
2023-02-05T04:26:04.726Z,37.92
2023-02-05T04:28:36.497Z,42.42
2023-02-05T04:31:09.440Z,40.35
2023-02-05T04:33:38.171Z,39.55
2023-02-05T04:36:05.470Z,40.40
2023-02-05T04:38:32.267Z,39.35
2023-02-05T04:40:58.939Z,40.58
2023-02-05T04:43:25.544Z,40.17
2023-02-05T04:45:52.091Z,37.80
2023-02-05T04:48:19.137Z,38.65
2023-02-05T04:50:45.660Z,39.50
2023-02-05T04:53:12.202Z,37.00
2023-02-05T04:55:38.682Z,39.70
2023-02-05T04:58:05.373Z,38.03
2023-02-05T05:00:31.911Z,37.42
2023-02-05T05:02:58.522Z,37.58
2023-02-05T05:05:25.207Z,36.28
2023-02-05T05:07:51.879Z,38.55
2023-02-05T05:10:18.537Z,36.65
2023-02-05T05:12:45.081Z,39.08
2023-02-05T05:15:11.651Z,41.53
2023-02-05T05:17:38.227Z,39.08
2023-02-05T05:20:05.129Z,41.22
2023-02-05T05:22:31.632Z,40.25
2023-02-05T05:24:58.179Z,42.65
2023-02-05T05:27:24.901Z,43.50
2023-02-05T05:29:51.477Z,45.10
2023-02-05T05:32:18.168Z,44.97
2023-02-05T05:34:44.721Z,47.05
2023-02-05T05:37:11.256Z,46.28
2023-02-05T05:39:56.564Z,50.45
2023-02-05T05:42:41.293Z,48.63
2023-02-05T05:45:08.157Z,49.45
2023-02-05T05:47:34.663Z,51.22
2023-02-05T05:50:01.300Z,49.42
2023-02-05T05:52:27.770Z,49.67
2023-02-05T05:54:54.272Z,49.63
2023-02-05T05:57:21.098Z,47.97
2023-02-05T05:59:47.601Z,48.75
2023-02-05T06:02:14.512Z,48.67
2023-02-05T06:04:41.169Z,49.92
2023-02-05T06:07:07.668Z,50.40
2023-02-05T06:09:34.186Z,51.25
2023-02-05T06:12:00.705Z,50.83
2023-02-05T06:14:27.191Z,50.65
2023-02-05T06:16:55.777Z,49.15
2023-02-05T06:19:23.082Z,48.63
2023-02-05T06:21:49.623Z,49.42
2023-02-05T06:24:16.160Z,47.80
2023-02-05T06:26:42.676Z,48.72
2023-02-05T06:29:09.203Z,47.65
2023-02-05T06:31:35.781Z,46.03
2023-02-05T06:34:02.388Z,49.60
2023-02-05T06:36:28.973Z,46.90
2023-02-05T06:38:55.453Z,47.42
2023-02-05T06:41:21.974Z,44.80
2023-02-05T06:43:48.530Z,43.33
2023-02-05T06:46:15.757Z,43.38
2023-02-05T06:48:42.387Z,42.05
2023-02-05T06:51:09.425Z,41.88
2023-02-05T06:53:36.078Z,41.33
2023-02-05T06:56:02.667Z,39.05
2023-02-05T06:58:29.227Z,40.65
2023-02-05T07:00:55.967Z,36.92
2023-02-05T07:03:23.058Z,37.55
2023-02-05T07:05:49.721Z,35.35
2023-02-05T07:08:17.371Z,36.10
2023-02-05T07:10:44.155Z,36.17
2023-02-05T07:13:10.728Z,37.00
2023-02-05T07:15:37.660Z,35.15
2023-02-05T07:18:05.054Z,35.97
2023-02-05T07:20:32.008Z,37.08
2023-02-05T07:22:58.540Z,34.58
2023-02-05T07:25:25.076Z,34.92
2023-02-05T07:27:51.650Z,36.60
2023-02-05T07:30:18.367Z,35.00
2023-02-05T07:32:44.904Z,32.95
2023-02-05T07:35:11.376Z,33.85
2023-02-05T07:37:39.271Z,35.13
2023-02-05T07:40:06.280Z,34.97
2023-02-05T07:42:32.853Z,33.15
2023-02-05T07:45:01.651Z,36.75
2023-02-05T07:47:28.266Z,37.72
2023-02-05T07:49:54.819Z,37.05
2023-02-05T07:52:21.382Z,35.15
2023-02-05T07:54:48.541Z,36.75
2023-02-05T07:57:15.027Z,34.13
2023-02-05T07:59:41.615Z,34.45
2023-02-05T08:02:09.935Z,32.58
2023-02-05T08:04:36.533Z,34.00
2023-02-05T08:07:03.108Z,32.22
2023-02-05T08:09:29.633Z,31.20
2023-02-05T08:11:56.142Z,31.98
2023-02-05T08:14:22.695Z,32.42
2023-02-05T08:16:49.252Z,32.35
2023-02-05T08:19:17.699Z,31.48
2023-02-05T08:21:44.796Z,29.75
2023-02-05T08:24:11.482Z,28.10
2023-02-05T08:26:38.051Z,18.73
2023-02-05T08:29:04.653Z,9.27
2023-02-05T08:31:31.255Z,8.00
2023-02-05T08:33:59.902Z,6.53
2023-02-05T08:36:26.618Z,2.17
2023-02-05T08:38:53.237Z,2.15
2023-02-05T08:41:19.941Z,1.92
2023-02-05T08:43:49.098Z,1.73
2023-02-05T08:46:19.293Z,2.13
2023-02-05T08:48:46.776Z,1.52
2023-02-05T08:51:13.915Z,2.20
2023-02-05T08:53:40.614Z,1.30
2023-02-05T08:56:10.451Z,1.90
2023-02-05T08:58:38.169Z,1.63
2023-02-05T09:01:08.086Z,1.70
2023-02-05T09:03:34.970Z,2.05
2023-02-05T09:06:05.207Z,1.90
2023-02-05T09:08:31.703Z,1.90
2023-02-05T09:10:58.204Z,1.42
2023-02-05T09:13:25.594Z,1.90
2023-02-05T09:15:52.104Z,1.55
2023-02-05T09:18:19.346Z,1.73
2023-02-05T09:20:47.441Z,1.50
2023-02-05T09:23:16.137Z,2.00
2023-02-05T09:25:43.035Z,2.20
2023-02-05T09:28:11.274Z,1.42
2023-02-05T09:30:39.271Z,1.90
2023-02-05T09:33:06.019Z,2.35
2023-02-05T09:35:36.437Z,2.25
2023-02-05T09:38:03.354Z,1.27
2023-02-05T09:40:35.287Z,2.00
2023-02-05T09:43:20.538Z,1.73
2023-02-05T09:45:52.780Z,1.77
2023-02-05T09:48:31.180Z,2.15
2023-02-05T09:50:58.370Z,2.75
2023-02-05T09:53:27.769Z,2.05
2023-02-05T09:55:54.414Z,2.33
2023-02-05T09:58:28.679Z,2.30
2023-02-05T10:01:07.550Z,2.70
2023-02-05T10:03:47.040Z,2.60
2023-02-05T10:06:28.140Z,2.78
2023-02-05T10:09:25.619Z,2.25
2023-02-05T10:12:03.131Z,2.05
2023-02-05T10:14:50.904Z,3.70
2023-02-05T10:17:42.128Z,2.00
2023-02-05T10:20:20.580Z,1.60
2023-02-05T10:22:54.455Z,2.22
2023-02-05T10:25:45.724Z,1.88
2023-02-05T10:30:56.882Z,1.98
2023-02-05T10:33:50.644Z,2.22
2023-02-05T10:36:22.007Z,1.88
2023-02-05T10:38:50.512Z,2.10
2023-02-05T10:41:16.940Z,1.90
2023-02-05T10:43:50.957Z,2.40
2023-02-05T10:46:18.322Z,1.70
2023-02-05T10:48:57.133Z,2.30
2023-02-05T10:51:32.922Z,2.28
2023-02-05T10:54:00.790Z,2.05
2023-02-05T10:56:27.280Z,2.60
2023-02-05T10:58:56.290Z,2.20
2023-02-05T11:01:26.295Z,2.83
2023-02-05T11:04:10.124Z,1.90
2023-02-05T11:06:42.158Z,2.53
2023-02-05T11:09:23.930Z,3.10
2023-02-05T11:11:52.165Z,2.05
2023-02-05T11:14:25.978Z,2.58
2023-02-05T11:16:53.324Z,2.13
2023-02-05T11:19:28.140Z,2.15
2023-02-05T11:22:00.575Z,3.00
2023-02-05T11:24:33.789Z,2.75
2023-02-05T11:27:15.570Z,2.70
2023-02-05T11:29:43.091Z,2.55
2023-02-05T11:32:35.244Z,3.15
2023-02-05T11:35:17.262Z,2.63
2023-02-05T11:37:43.960Z,3.30
2023-02-05T11:40:24.955Z,2.92
2023-02-05T11:43:18.114Z,3.08
2023-02-05T11:45:49.355Z,3.15
2023-02-05T11:50:48.490Z,2.38
2023-02-05T11:53:16.675Z,2.65
2023-02-05T11:55:44.259Z,3.08
2023-02-05T11:58:36.243Z,2.28
2023-02-05T12:01:24.148Z,2.28
2023-02-05T12:04:01.092Z,2.10
2023-02-05T12:06:40.385Z,3.58
2023-02-05T12:09:10.019Z,2.45
2023-02-05T12:12:00.885Z,2.80
2023-02-05T12:14:50.568Z,1.95
2023-02-05T12:17:21.433Z,1.77
2023-02-05T12:20:03.512Z,2.38
2023-02-05T12:23:07.352Z,2.08
2023-02-05T12:25:41.754Z,2.00
2023-02-05T12:28:23.172Z,2.15
2023-02-05T12:30:59.845Z,1.65
2023-02-05T12:33:44.401Z,1.67
2023-02-05T12:36:21.897Z,1.50
2023-02-05T12:39:06.456Z,2.08
2023-02-05T12:41:45.545Z,1.92
2023-02-05T12:44:34.662Z,1.92
2023-02-05T12:47:32.124Z,1.60
2023-02-05T12:50:07.857Z,1.65
2023-02-05T12:52:46.347Z,1.40
2023-02-05T12:55:30.799Z,1.45
2023-02-05T12:58:00.312Z,2.45
2023-02-05T13:00:34.232Z,1.67
2023-02-05T13:03:11.303Z,2.13
2023-02-05T13:05:42.734Z,1.52
2023-02-05T13:08:34.217Z,2.38
2023-02-05T13:11:09.051Z,1.33
2023-02-05T13:13:56.631Z,1.70
2023-02-05T13:16:31.102Z,1.63
2023-02-05T13:19:34.055Z,1.77
2023-02-05T13:22:34.800Z,1.83
2023-02-05T13:25:44.414Z,2.17
2023-02-05T13:28:39.286Z,2.10
2023-02-05T13:31:24.030Z,1.85
2023-02-05T13:33:51.980Z,1.75
2023-02-05T13:36:24.665Z,1.70
2023-02-05T13:39:04.068Z,1.55
2023-02-05T13:42:01.549Z,2.15
2023-02-05T13:44:30.863Z,1.98
2023-02-05T13:47:18.081Z,2.00
2023-02-05T13:50:23.407Z,1.63
2023-02-05T13:52:52.716Z,2.72
2023-02-05T13:56:08.654Z,2.38
2023-02-05T13:58:44.252Z,1.95
2023-02-05T14:01:19.152Z,2.00
2023-02-05T14:03:56.181Z,1.48
2023-02-05T14:06:28.512Z,1.88
2023-02-05T14:09:01.249Z,2.05
2023-02-05T14:11:28.432Z,2.38
2023-02-05T14:14:16.487Z,1.77
2023-02-05T14:16:44.769Z,1.95
2023-02-05T14:19:22.229Z,2.30
2023-02-05T14:21:57.645Z,2.05
2023-02-05T14:24:43.156Z,1.95
2023-02-05T14:27:37.490Z,1.92
2023-02-05T14:30:37.753Z,2.63
2023-02-05T14:33:30.561Z,1.90
2023-02-05T14:36:17.348Z,1.85
2023-02-05T14:38:55.665Z,1.98
2023-02-05T14:41:24.760Z,1.98
2023-02-05T14:44:18.095Z,2.38
2023-02-05T14:47:23.268Z,1.92
2023-02-05T14:49:50.741Z,2.55
2023-02-05T14:52:25.387Z,2.22
2023-02-05T14:54:59.500Z,2.42
2023-02-05T14:57:49.178Z,2.35
2023-02-05T15:00:24.064Z,2.17
2023-02-05T15:03:00.330Z,1.92
2023-02-05T15:05:45.057Z,4.90
2023-02-05T15:08:23.631Z,2.10
2023-02-05T15:10:57.142Z,2.88
2023-02-05T15:13:25.011Z,2.42
2023-02-05T15:16:19.865Z,2.53
2023-02-05T15:18:49.967Z,2.33
2023-02-05T15:21:20.465Z,3.20
2023-02-05T15:24:06.876Z,2.58
2023-02-05T15:26:58.238Z,3.22
2023-02-05T15:32:02.223Z,2.47
2023-02-05T15:34:41.603Z,2.50
2023-02-05T15:37:16.949Z,3.00
2023-02-05T15:39:57.636Z,2.42
2023-02-05T15:42:30.690Z,3.17
2023-02-05T15:44:57.453Z,3.65
2023-02-05T15:47:26.408Z,2.80
2023-02-05T15:49:55.036Z,3.65
2023-02-05T15:52:24.652Z,2.78
2023-02-05T15:54:54.489Z,3.08
2023-02-05T15:57:27.547Z,3.60
2023-02-05T15:59:55.264Z,3.17
2023-02-05T16:02:24.554Z,3.45
2023-02-05T16:04:58.651Z,3.58
2023-02-05T16:07:25.240Z,3.03
2023-02-05T16:09:56.580Z,3.85
2023-02-05T16:12:23.548Z,3.35
2023-02-05T16:15:03.324Z,3.30
2023-02-05T16:17:36.048Z,3.55
2023-02-05T16:20:26.617Z,4.20
2023-02-05T16:23:06.429Z,3.37
2023-02-05T16:25:49.020Z,3.10
2023-02-05T16:28:20.958Z,3.10
2023-02-05T16:30:48.641Z,3.38
2023-02-05T16:33:36.024Z,3.22
2023-02-05T16:36:05.401Z,2.75
2023-02-05T16:38:32.164Z,3.75
2023-02-05T16:41:00.210Z,3.60
2023-02-05T16:43:31.229Z,3.90
2023-02-05T16:46:06.935Z,3.38
2023-02-05T16:48:36.882Z,3.00
2023-02-05T16:51:04.460Z,3.90
2023-02-05T16:53:36.702Z,2.83
2023-02-05T16:56:18.000Z,3.50
2023-02-05T17:01:12.441Z,4.20
2023-02-05T17:03:40.969Z,3.67
2023-02-05T17:06:13.492Z,3.45
2023-02-05T17:08:40.366Z,3.75
2023-02-05T17:11:28.365Z,3.67
2023-02-05T17:14:11.776Z,2.60
2023-02-05T17:16:42.358Z,3.33
2023-02-05T17:19:26.476Z,3.55
2023-02-05T17:22:15.023Z,3.20
2023-02-05T17:24:42.972Z,3.80
2023-02-05T17:27:15.830Z,3.75
2023-02-05T17:29:42.648Z,3.30
2023-02-05T17:32:17.046Z,3.10
2023-02-05T17:34:47.098Z,4.47
2023-02-05T17:37:16.624Z,3.40
2023-02-05T17:39:43.369Z,3.33
2023-02-05T17:42:24.511Z,3.95
2023-02-05T17:44:51.647Z,4.13
2023-02-05T17:47:18.944Z,3.55
2023-02-05T17:49:46.161Z,2.83
2023-02-05T17:52:12.835Z,3.38
2023-02-05T17:54:39.744Z,3.58
2023-02-05T17:57:14.993Z,3.65
2023-02-05T17:59:44.902Z,3.28
2023-02-05T18:02:12.781Z,2.80
2023-02-05T18:04:40.113Z,2.80
2023-02-05T18:07:34.987Z,3.33
2023-02-05T18:10:05.031Z,3.45
2023-02-05T18:12:33.694Z,3.67
2023-02-05T18:15:00.347Z,4.18
2023-02-05T18:17:26.929Z,3.53
2023-02-05T18:19:53.529Z,3.33
2023-02-05T18:22:28.055Z,3.70
2023-02-05T18:24:54.658Z,4.00
2023-02-05T18:27:21.168Z,4.28
2023-02-05T18:29:47.684Z,3.55
2023-02-05T18:32:14.205Z,3.97
2023-02-05T18:34:40.772Z,3.75
2023-02-05T18:37:07.270Z,4.60
2023-02-05T18:39:33.852Z,3.15
2023-02-05T18:42:00.587Z,3.13
2023-02-05T18:44:27.524Z,3.85
2023-02-05T18:46:54.359Z,4.95
2023-02-05T18:49:21.005Z,4.07
2023-02-05T18:51:47.666Z,4.32
2023-02-05T18:55:00.916Z,3.13
2023-02-05T18:57:27.731Z,4.50
2023-02-05T18:59:54.321Z,3.70
2023-02-05T19:02:21.092Z,5.35
2023-02-05T19:04:52.038Z,3.65
2023-02-05T19:07:20.399Z,3.45
2023-02-05T19:09:46.912Z,4.18
2023-02-05T19:12:13.448Z,2.97
2023-02-05T19:14:40.635Z,3.95
2023-02-05T19:17:07.802Z,3.90
2023-02-05T19:19:34.416Z,3.75
2023-02-05T19:22:02.083Z,3.70
2023-02-05T19:24:28.965Z,3.17
2023-02-05T19:26:57.537Z,4.93
2023-02-05T19:29:25.233Z,4.90
2023-02-05T19:31:54.770Z,3.58
2023-02-05T19:34:22.627Z,4.18
2023-02-05T19:36:49.600Z,5.07
2023-02-05T19:39:16.158Z,4.30
2023-02-05T19:41:45.445Z,4.15
2023-02-05T19:44:12.372Z,3.75
2023-02-05T19:46:48.727Z,4.90
2023-02-05T19:49:17.377Z,3.88
2023-02-05T19:51:49.163Z,4.10
2023-02-05T19:54:16.484Z,4.63
2023-02-05T19:56:43.985Z,4.20
2023-02-05T19:59:11.172Z,4.80
2023-02-05T20:01:40.151Z,5.32
2023-02-05T20:04:19.349Z,4.55
2023-02-05T20:06:49.122Z,4.40
2023-02-05T20:09:16.791Z,4.40
2023-02-05T20:11:48.659Z,3.53
2023-02-05T20:14:16.356Z,4.47
2023-02-05T20:16:45.339Z,4.85
2023-02-05T20:19:13.809Z,4.88
2023-02-05T20:21:40.893Z,5.25
2023-02-05T20:24:08.227Z,4.38
2023-02-05T20:26:35.600Z,5.20
2023-02-05T20:29:20.596Z,4.70
2023-02-05T20:31:49.604Z,4.95
2023-02-05T20:34:18.423Z,5.78
2023-02-05T20:36:56.559Z,3.92
2023-02-05T20:39:24.990Z,4.55
2023-02-05T20:41:52.231Z,4.57
2023-02-05T20:44:19.512Z,4.28
2023-02-05T20:46:46.228Z,4.88
2023-02-05T20:49:13.027Z,4.50
2023-02-05T20:51:39.895Z,5.13
2023-02-05T20:54:06.816Z,5.53
2023-02-05T20:56:33.453Z,5.82
2023-02-05T20:59:01.520Z,5.50
2023-02-05T21:01:29.984Z,5.88
2023-02-05T21:03:59.939Z,5.05
2023-02-05T21:06:28.760Z,5.22
2023-02-05T21:08:55.265Z,5.40
2023-02-05T21:11:23.420Z,5.25
2023-02-05T21:13:50.549Z,4.68
2023-02-05T21:16:19.512Z,4.90
2023-02-05T21:18:48.611Z,5.47
2023-02-05T21:21:18.374Z,6.35
2023-02-05T21:23:48.605Z,5.15
2023-02-05T21:26:32.664Z,7.23
2023-02-05T21:29:02.440Z,5.57
2023-02-05T21:31:33.803Z,4.55
2023-02-05T21:36:28.954Z,5.93
2023-02-05T21:38:55.912Z,6.28
2023-02-05T21:41:23.059Z,6.38
2023-02-05T21:43:57.489Z,5.07
2023-02-05T21:46:25.667Z,5.28
2023-02-05T21:48:54.158Z,5.25
2023-02-05T21:51:23.339Z,4.88
2023-02-05T21:53:57.079Z,5.70
2023-02-05T21:56:25.833Z,5.03
2023-02-05T21:58:52.690Z,5.07
2023-02-05T22:01:21.691Z,5.43
2023-02-05T22:03:53.052Z,5.50
2023-02-05T22:06:20.524Z,5.60
2023-02-05T22:08:48.217Z,6.25
2023-02-05T22:11:15.009Z,5.50
2023-02-05T22:13:44.307Z,6.05
2023-02-05T22:16:13.696Z,6.80
2023-02-05T22:18:40.978Z,5.68
2023-02-05T22:21:09.540Z,5.90
2023-02-05T22:23:36.315Z,5.97
2023-02-05T22:26:03.058Z,4.90
2023-02-05T22:28:30.031Z,5.65
2023-02-05T22:31:04.566Z,6.22
2023-02-05T22:33:31.681Z,4.80
2023-02-05T22:35:59.072Z,5.15
2023-02-05T22:38:26.309Z,5.47
2023-02-05T22:40:53.111Z,5.20
2023-02-05T22:43:19.710Z,5.10
2023-02-05T22:45:46.320Z,5.18
2023-02-05T22:48:12.990Z,5.32
2023-02-05T22:50:44.393Z,4.40
2023-02-05T22:53:12.347Z,4.85
2023-02-05T22:55:40.939Z,5.53
2023-02-05T22:58:07.525Z,5.03
2023-02-05T23:00:34.107Z,4.93
2023-02-05T23:03:01.172Z,5.57
2023-02-05T23:05:31.953Z,5.78
2023-02-05T23:07:58.447Z,4.95
2023-02-05T23:10:24.969Z,5.43
2023-02-05T23:12:51.578Z,5.50
2023-02-05T23:15:18.203Z,5.15
2023-02-05T23:17:44.766Z,6.43
2023-02-05T23:20:11.653Z,5.72
2023-02-05T23:22:38.210Z,5.13
2023-02-05T23:25:05.547Z,5.72
2023-02-05T23:27:33.272Z,4.75
2023-02-05T23:30:00.029Z,5.25
2023-02-05T23:32:26.739Z,5.70
2023-02-05T23:34:53.244Z,5.13
2023-02-05T23:37:19.780Z,6.00
2023-02-05T23:39:46.327Z,7.20
2023-02-05T23:42:12.952Z,4.60
2023-02-05T23:44:39.485Z,5.88
2023-02-05T23:47:06.887Z,5.38
2023-02-05T23:49:33.532Z,5.13
2023-02-05T23:52:00.253Z,5.25
2023-02-05T23:54:26.836Z,6.20
2023-02-05T23:56:54.839Z,4.50
2023-02-05T23:59:21.742Z,6.28
